Hauptseite
METAR-TAF:

METAR-TAF

Flughäfen :

Düsseldorf Airport

Düsseldorf, Deutschland

Breite: 51-18N, Länge: 006-46E, Höhe: 45 m

Beobachtung

Neuester Wetterbericht von vor 38 Minuten, um 09:50 UTC
Wind 7 kt aus Süd/Südost
Temperatur 1°C
Luftfeuchtigkeit 69%
Luftdruck 1018 hPa
Sichtweite 10 km oder mehr
keine Wolken unter 1500 m und keine Kumulonimbus oder Gewitterwolken

METAR: EDDL 190950Z 16007KT CAVOK 01/M04 Q1018 NOSIG

Zeit: 11:28 (10:28 UTC)

Prognose

Neuester Wetterbericht von vor 5 Stunden und 28 Minuten, um 05:00 UTC
Gültige Prognose vom 19 um 06 UTC bis 20 um 12 UTC
Wind 7 kt aus Südost
Sichtweite 10 km oder mehr
keine Wolken unter 1500 m und keine Kumulonimbus oder Gewitterwolken
Übergehend zu
vom 20 um 02 UTC bis 20 um 05 UTC
Wind 5 kt aus Ost

TAF: EDDL 190500Z 1906/2012 14007KT CAVOK BECMG 2002/2005 08005KT

Wetterbeobachtungen und Prognosen von mehr als 4000 Flughäfen (METAR und TAF Bericht).

Die verfügbaren Stationen werden durch gelbe und rote Markierungen auf der Karte dargestellt.

Führen Sie die Maus auf sie, um den Namen der Station zu sehen.

Darauf klicken, um die Beobachtung von Wetterbeobachtungen und Prognosen zu sehen.

Um die Karte zu ändern : klicken Sie auf den grünen Tasten mit einem schwarzen Kreuz Zum Vergrößern, auf den grünen Button mit einem Gedankenstrich zu verkleinern, oder auf die grünen Pfeile für benachbarte Karten.


METAR-TAF: